Terminal Aerodrome Forecast
Issued by NWS

Home | Current Version | Previous Version | Text Only | Print | Product List | Glossary On
Versions: 1 2 3 4 5 6 7 8 9 10 11 12 13 14 15 16 17 18 19
000
FTUS43 KLSX 191300 AAA
TAFUIN
TAF AMD
KUIN 191313Z 1913/2012 VRB03KT P6SM SKC
      TEMPO 1913/1915 4SM BR
     FM191500 20008KT P6SM SCT120
     FM201100 25007KT P6SM BKN050=

USA.gov is the U.S. government's official web portal to all federal, state and local government web resources and services.